Tormenta Desde: 24-05-2019 13:00 Hasta: 19:59 Advertencia para: Tormenta Nivel: Amarillo
Situación metereológica potencialmente peligrosa.
info button

Informes METAR

 

KSJC - San Jose, California, USA
Distancia de la estación: NE 14km
Actualización: 24/05/2019 21:53
Poco nuboso
Poco nuboso
 Viento de NNO
Viento: NNO 17 km/h
Temperatura: 22°C
Rocío: 13°C
Humedad: 57%
Barómetro: 1016.3 hPa
Nubes: Poco nuboso
Visibilidad: 16 km
Detalles de las nubes: Poco nuboso 1524 m
2019/05/24 19:53 KSJC 241953Z 33009KT 10SM FEW050 22/13 A3001 RMK AO2 RAB35E44 SLP160 TCU DSNT E P0000 T02170133
KNUQ - Moffett Nas/Mtn, California, USA
Distancia de la estación: N 14km
Actualización: 24/05/2019 21:56
Despejado
Despejado
 Viento de N
Viento: N 20 km/h
Temperatura: 21°C
Rocío: 13°C
Humedad: 60%
Barómetro: 1016.6 hPa
Nubes: Despejado
Visibilidad: 16 km
2019/05/24 19:56 KNUQ 241956Z 35011KT 10SM CLR 21/13 A3002 RMK AO2 SLP169 T02110128
 
KPAO - Palo Alto, California, USA
Distancia de la estación: NNO 23km
Actualización: 24/05/2019 21:47
Poco nuboso
Poco nuboso
 Viento de N
Viento: N 24 km/h
Temperatura: 19°C
Rocío: 13°C
Humedad: 68%
Barómetro: 1016.9 hPa
Nubes: Poco nuboso
Visibilidad: 16 km
Detalles de las nubes: Poco nuboso 914 m
2019/05/24 19:47 KPAO 241947Z 35013KT 10SM FEW030 19/13 A3003
KRHV - San Jose/Reid, California, USA
Distancia de la estación: ENE 19km
Actualización: 24/05/2019 21:47
Parcialmente nuboso
Parcialmente nuboso
 Viento de ENE
Viento: ENE 7 km/h
Temperatura: 22°C
Rocío: 11°C
Humedad: 50%
Barómetro: 1016.6 hPa
Nubes: Parcialmente nuboso
Visibilidad: 16 km
Detalles de las nubes: Parcialmente nuboso 1524 m
2019/05/24 19:47 KRHV 241947Z 06004KT 10SM SCT050 22/11 A3002
 
KOAK - Oakland, California, USA
Distancia de la estación: NNO 50km
Actualización: 24/05/2019 21:53
Poco nuboso
Poco nuboso
 Viento de O
Viento: O 19 km/h
Temperatura: 18°C
Rocío: 11°C
Humedad: 64%
Barómetro: 1017.3 hPa
Nubes: Poco nuboso
Visibilidad: 16 km
Detalles de las nubes: Poco nuboso 792 m
2019/05/24 19:53 KOAK 241953Z 27010KT 10SM FEW026 18/11 A3004 RMK AO2 SLP171 T01780111
KSQL - San Carlos Airpo, California, USA
Distancia de la estación: NO 34km
Actualización: 24/05/2019 21:47
Parcialmente nuboso
Parcialmente nuboso
 Viento de O
Viento: O 22 km/h
Temperatura: 19°C
Rocío: 12°C
Humedad: 64%
Barómetro: 1016.9 hPa
Nubes: Parcialmente nuboso
Visibilidad: 16 km
Detalles de las nubes: Parcialmente nuboso 762 m
2019/05/24 19:47 KSQL 241947Z 26012KT 10SM SCT025 19/12 A3003
 
KSFO - San Francisco, California, USA
Distancia de la estación: NO 49km
Actualización: 24/05/2019 21:56
Poco nuboso
Poco nuboso
 Viento de O
Viento: O 20 km/h, Racha: 37 km/h
Temperatura: 18°C
Rocío: 11°C
Humedad: 64%
Barómetro: 1016.6 hPa
Nubes: Poco nuboso
Visibilidad: 16 km
Detalles de las nubes: Poco nuboso 853 m
2019/05/24 19:56 KSFO 241956Z 27011G20KT 10SM FEW028 18/11 A3002 RMK AO2 SLP164 T01830111
KE16 - San Martin, California, USA
Distancia de la estación: ESE 43km
Actualización: 19/05/2019 19:45
NOT Current
Parcialmente nuboso
Parcialmente nuboso
 Viento de SE
Viento: SE 17 km/h
Temperatura: 12°C
Rocío: 10°C
Humedad: 88%
Barómetro: 1010.2 hPa
Nubes: Parcialmente nuboso
Visibilidad: 16 km
Detalles de las nubes: Poco nuboso 1463 m
Parcialmente nuboso 1676 m
2019/05/19 17:45 KE16 191745Z AUTO 13009KT 10SM FEW048 SCT055 12/10 A2983 RMK AO2
 
KWVI - Watsonville, California, USA
Distancia de la estación: SSE 44km
Actualización: 24/05/2019 21:53
Despejado
Despejado
 Viento de O
Viento: O 17 km/h
Temperatura: 19°C
Rocío: 12°C
Humedad: 64%
Barómetro: 1017.6 hPa
Nubes: Despejado
Visibilidad: 16 km
2019/05/24 19:53 KWVI 241953Z AUTO 27009KT 10SM CLR 19/12 A3005 RMK AO2 SLP174 T01890117
KHAF - Half Moon Bay, California, USA
Distancia de la estación: ONO 50km
Actualización: 24/05/2019 21:55
Cubierto
Cubierto
 Viento de SO
Viento: SO 9 km/h
Temperatura: 14°C
Rocío: 12°C
Humedad: 88%
Barómetro: 1017.9 hPa
Nubes: Cubierto
Visibilidad: 16 km
Detalles de las nubes: Cubierto 671 m
2019/05/24 19:55 KHAF 241955Z AUTO 23005KT 10SM OVC022 14/12 A3006 RMK AO2
 
KHWD - Hayward, California, USA
Distancia de la estación: N 44km
Actualización: 24/05/2019 21:54
Poco nuboso
Poco nuboso
 Viento de ONO
Viento: ONO 17 km/h
Temperatura: 18°C
Rocío: 12°C
Humedad: 68%
Barómetro: 1016.9 hPa
Nubes: Poco nuboso
Visibilidad: 16 km
Detalles de las nubes: Poco nuboso 762 m
2019/05/24 19:54 KHWD 241954Z 29009KT 10SM FEW025 18/12 A3003 RMK AO2 SLP177 T01830117
KLVK - Livermore, California, USA
Distancia de la estación: NNE 51km
Actualización: 24/05/2019 21:53
Despejado
Despejado
 Viento de O
Viento: O 17 km/h
Temperatura: 21°C
Rocío: 12°C
Humedad: 57%
Barómetro: 1015.9 hPa
Nubes: Despejado
Visibilidad: 16 km
2019/05/24 19:53 KLVK 241953Z 28009KT 10SM CLR 21/12 A3000 RMK AO2 SLP156 T02110117